createdAt,value
2022-10-18T00:02:16.102Z,23.27
2022-10-18T00:04:38.619Z,22.67
2022-10-18T00:07:01.054Z,23.77
2022-10-18T00:09:23.665Z,23.23
2022-10-18T00:11:46.028Z,23.92
2022-10-18T00:14:08.543Z,23.30
2022-10-18T00:16:30.919Z,23.85
2022-10-18T00:18:53.340Z,24.27
2022-10-18T00:21:18.597Z,23.73
2022-10-18T00:23:41.102Z,23.42
2022-10-18T00:26:14.938Z,24.02
2022-10-18T00:28:38.857Z,23.42
2022-10-18T00:31:17.177Z,23.13
2022-10-18T00:33:39.878Z,22.67
2022-10-18T00:36:02.234Z,23.27
2022-10-18T00:38:24.605Z,24.85
2022-10-18T00:40:46.982Z,23.23
2022-10-18T00:43:14.975Z,23.77
2022-10-18T00:45:37.337Z,23.02
2022-10-18T00:48:02.651Z,23.73
2022-10-18T00:50:25.533Z,22.95
2022-10-18T00:52:58.426Z,21.88
2022-10-18T00:55:20.931Z,23.65
2022-10-18T00:57:43.418Z,24.35
2022-10-18T01:00:09.902Z,24.13
2022-10-18T01:02:32.826Z,23.67
2022-10-18T01:04:55.422Z,24.35
2022-10-18T01:07:35.174Z,23.73
2022-10-18T01:10:22.491Z,24.17
2022-10-18T01:12:47.436Z,24.27
2022-10-18T01:15:21.591Z,24.00
2022-10-18T01:18:01.751Z,24.02
2022-10-18T01:20:59.096Z,24.60
2022-10-18T01:23:49.925Z,23.30
2022-10-18T01:26:37.823Z,23.90
2022-10-18T01:29:53.504Z,23.92
2022-10-18T01:32:44.630Z,23.25
2022-10-18T01:35:11.843Z,22.42
2022-10-18T01:37:34.497Z,24.67
2022-10-18T01:39:57.423Z,23.40
2022-10-18T01:42:19.953Z,23.42
2022-10-18T01:44:42.431Z,24.15
2022-10-18T01:47:04.773Z,22.92
2022-10-18T01:49:27.262Z,23.83
2022-10-18T01:51:49.593Z,25.20
2022-10-18T01:54:13.217Z,24.60
2022-10-18T01:57:02.106Z,24.58
2022-10-18T01:59:38.748Z,22.80
2022-10-18T02:02:30.247Z,24.60
2022-10-18T02:05:10.909Z,22.63
2022-10-18T02:07:40.086Z,23.00
2022-10-18T02:10:32.870Z,24.05
2022-10-18T02:12:55.339Z,23.00
2022-10-18T02:15:21.212Z,24.90
2022-10-18T02:17:43.610Z,24.67
2022-10-18T02:20:06.947Z,25.63
2022-10-18T02:22:31.832Z,24.15
2022-10-18T02:24:56.228Z,23.77
2022-10-18T02:27:18.682Z,24.80
2022-10-18T02:29:41.632Z,24.38
2022-10-18T02:32:29.186Z,23.23
2022-10-18T02:35:19.189Z,24.42
2022-10-18T02:37:41.528Z,23.75
2022-10-18T02:40:05.859Z,23.03
2022-10-18T02:42:54.631Z,23.73
2022-10-18T02:45:17.127Z,23.85
2022-10-18T02:47:39.541Z,24.20
2022-10-18T02:50:01.955Z,24.90
2022-10-18T02:52:24.330Z,25.43
2022-10-18T02:54:46.682Z,23.73
2022-10-18T02:57:09.111Z,25.27
2022-10-18T02:59:31.506Z,25.13
2022-10-18T03:01:53.955Z,24.00
2022-10-18T03:04:16.433Z,23.90
2022-10-18T03:06:38.848Z,24.65
2022-10-18T03:09:03.874Z,23.73
2022-10-18T03:11:26.230Z,23.77
2022-10-18T03:13:50.352Z,23.50
2022-10-18T03:16:13.054Z,23.38
2022-10-18T03:18:35.471Z,24.83
2022-10-18T03:20:57.814Z,24.67
2022-10-18T03:23:20.148Z,23.70
2022-10-18T03:25:45.633Z,22.92
2022-10-18T03:28:08.881Z,23.02
2022-10-18T03:30:31.301Z,25.20
2022-10-18T03:32:54.372Z,24.37
2022-10-18T03:35:16.924Z,24.38
2022-10-18T03:37:39.262Z,23.00
2022-10-18T03:40:01.812Z,23.05
2022-10-18T03:42:24.214Z,23.55
2022-10-18T03:44:46.577Z,24.93
2022-10-18T03:47:08.917Z,24.93
2022-10-18T03:49:31.275Z,23.13
2022-10-18T03:51:53.646Z,24.92
2022-10-18T03:54:16.007Z,23.33
2022-10-18T03:56:38.370Z,22.70
2022-10-18T03:59:00.729Z,23.70
2022-10-18T04:01:23.319Z,25.17
2022-10-18T04:03:45.717Z,23.90
2022-10-18T04:06:10.010Z,24.30
2022-10-18T04:08:32.371Z,23.50
2022-10-18T04:10:54.724Z,24.67
2022-10-18T04:13:17.071Z,23.95
2022-10-18T04:15:39.444Z,24.37
2022-10-18T04:18:01.851Z,22.97
2022-10-18T04:20:25.055Z,24.67
2022-10-18T04:22:50.494Z,23.38
2022-10-18T04:25:12.858Z,24.00
2022-10-18T04:27:36.046Z,24.63
2022-10-18T04:29:58.442Z,22.92
2022-10-18T04:32:20.786Z,24.47
2022-10-18T04:36:50.140Z,23.85
2022-10-18T04:38:52.310Z,25.17
2022-10-18T04:40:54.439Z,23.25
2022-10-18T04:42:57.210Z,23.25
2022-10-18T04:47:01.377Z,22.70
2022-10-18T04:49:03.506Z,25.88
2022-10-18T04:51:05.915Z,24.45
2022-10-18T04:53:08.015Z,25.38
2022-10-18T04:55:10.224Z,25.98
2022-10-18T04:57:12.354Z,23.52
2022-10-18T04:59:14.493Z,24.45
2022-10-18T05:01:17.336Z,25.33
2022-10-18T05:03:19.556Z,25.80
2022-10-18T05:05:21.634Z,25.15
2022-10-18T05:07:23.813Z,24.42
2022-10-18T05:09:25.932Z,26.02
2022-10-18T05:11:28.020Z,22.80
2022-10-18T05:13:30.613Z,24.92
2022-10-18T05:15:32.728Z,23.88
2022-10-18T05:17:34.827Z,23.88
2022-10-18T05:19:36.918Z,24.10
2022-10-18T05:21:39.025Z,24.00
2022-10-18T05:23:41.130Z,22.17
2022-10-18T05:25:43.785Z,25.02
2022-10-18T05:27:45.874Z,23.67
2022-10-18T05:29:48.307Z,24.60
2022-10-18T05:31:50.827Z,24.52
2022-10-18T05:33:53.012Z,24.83
2022-10-18T05:35:55.149Z,23.52
2022-10-18T05:37:57.297Z,23.15
2022-10-18T05:39:59.432Z,25.80
2022-10-18T05:42:02.468Z,24.30
2022-10-18T05:44:05.490Z,24.38
2022-10-18T05:46:12.092Z,24.45
2022-10-18T05:48:17.402Z,24.63
2022-10-18T05:50:19.552Z,25.42
2022-10-18T05:52:21.790Z,25.42
2022-10-18T05:54:23.962Z,24.45
2022-10-18T05:56:26.152Z,26.50
2022-10-18T05:58:28.350Z,24.38
2022-10-18T06:00:30.528Z,24.98
2022-10-18T06:02:32.672Z,23.80
2022-10-18T06:04:35.222Z,24.40
2022-10-18T06:06:37.928Z,23.80
2022-10-18T06:10:42.344Z,26.17
2022-10-18T06:12:44.557Z,24.33
2022-10-18T06:14:47.471Z,24.13
2022-10-18T06:16:50.618Z,24.13
2022-10-18T06:18:54.982Z,24.23
2022-10-18T06:20:59.051Z,24.45
2022-10-18T06:23:01.228Z,23.83
2022-10-18T06:25:03.436Z,23.17
2022-10-18T06:27:09.597Z,22.48
2022-10-18T06:29:11.946Z,22.58
2022-10-18T06:31:14.439Z,24.20
2022-10-18T06:33:37.234Z,24.58
2022-10-18T06:35:39.375Z,23.77
2022-10-18T06:39:48.545Z,24.20
2022-10-18T06:41:50.698Z,24.85
2022-10-18T06:43:55.117Z,24.83
2022-10-18T06:45:57.346Z,23.98
2022-10-18T06:47:59.618Z,24.88
2022-10-18T06:50:01.742Z,23.50
2022-10-18T06:52:04.037Z,24.58
2022-10-18T06:54:17.612Z,23.30
2022-10-18T06:56:20.474Z,23.80
2022-10-18T06:58:22.570Z,24.35
2022-10-18T07:00:24.696Z,23.17
2022-10-18T07:02:26.950Z,20.13
2022-10-18T07:04:30.467Z,22.98
2022-10-18T07:06:32.599Z,20.88
2022-10-18T07:08:35.203Z,22.23
2022-10-18T07:10:37.412Z,20.67
2022-10-18T07:12:39.587Z,23.15
2022-10-18T07:14:41.705Z,23.27
2022-10-18T07:16:43.872Z,22.00
2022-10-18T07:18:50.646Z,22.95
2022-10-18T07:20:52.767Z,23.75
2022-10-18T07:22:57.168Z,23.20
2022-10-18T07:24:59.282Z,22.90
2022-10-18T07:27:01.378Z,22.70
2022-10-18T07:29:09.608Z,21.70
2022-10-18T07:31:12.404Z,22.10
2022-10-18T07:35:16.679Z,20.58
2022-10-18T07:37:18.841Z,21.88
2022-10-18T07:39:21.090Z,22.40
2022-10-18T07:41:23.347Z,22.10
2022-10-18T07:43:25.576Z,20.60
2022-10-18T07:45:27.716Z,22.45
2022-10-18T07:47:31.383Z,23.45
2022-10-18T07:49:36.512Z,22.98
2022-10-18T07:51:38.653Z,22.52
2022-10-18T07:53:40.851Z,22.52
2022-10-18T07:55:43.359Z,22.70
2022-10-18T07:57:45.503Z,21.83
2022-10-18T07:59:48.354Z,23.08
2022-10-18T08:01:50.479Z,21.40
2022-10-18T08:03:53.119Z,22.70
2022-10-18T08:05:55.451Z,21.83
2022-10-18T08:07:57.602Z,23.23
2022-10-18T08:09:59.740Z,23.45
2022-10-18T08:12:01.897Z,23.75
2022-10-18T08:14:03.989Z,22.17
2022-10-18T08:16:08.951Z,22.83
2022-10-18T08:18:11.252Z,23.05
2022-10-18T08:20:30.029Z,23.92
2022-10-18T08:22:32.825Z,21.42
2022-10-18T08:24:34.940Z,21.65
2022-10-18T08:26:37.056Z,21.63
2022-10-18T08:28:39.544Z,23.33
2022-10-18T08:30:41.713Z,21.60
2022-10-18T08:32:43.877Z,22.30
2022-10-18T08:34:45.979Z,22.05
2022-10-18T08:36:48.097Z,22.70
2022-10-18T08:38:50.344Z,22.77
2022-10-18T08:40:52.536Z,21.50
2022-10-18T08:45:43.194Z,21.08
2022-10-18T08:47:49.133Z,22.23
2022-10-18T08:49:54.699Z,22.27
2022-10-18T08:51:57.251Z,21.58
2022-10-18T08:54:22.908Z,20.60
2022-10-18T08:56:25.136Z,20.75
2022-10-18T08:58:31.709Z,21.98
2022-10-18T09:00:34.930Z,22.73
2022-10-18T09:03:26.506Z,21.33
2022-10-18T09:05:41.927Z,21.25
2022-10-18T09:07:47.723Z,20.60
2022-10-18T09:10:10.177Z,20.23
2022-10-18T09:12:50.958Z,19.48
2022-10-18T09:15:14.201Z,19.55
2022-10-18T09:19:55.147Z,18.38
2022-10-18T09:22:12.964Z,17.15
2022-10-18T09:24:22.413Z,18.67
2022-10-18T09:26:24.962Z,18.15
2022-10-18T09:28:45.379Z,17.83
2022-10-18T09:31:02.034Z,17.15
2022-10-18T09:33:21.519Z,18.88
2022-10-18T09:35:27.553Z,17.63
2022-10-18T09:37:30.743Z,18.30
2022-10-18T09:39:35.598Z,20.30
2022-10-18T09:42:04.588Z,19.33
2022-10-18T09:44:20.028Z,18.33
2022-10-18T09:46:23.667Z,21.50
2022-10-18T09:48:51.204Z,21.23
2022-10-18T09:51:25.616Z,20.83
2022-10-18T09:53:50.367Z,20.38
2022-10-18T09:55:57.007Z,18.80
2022-10-18T09:58:00.969Z,19.55
2022-10-18T10:00:05.139Z,18.85
2022-10-18T10:02:09.443Z,18.23
2022-10-18T10:04:11.684Z,17.80
2022-10-18T10:06:16.539Z,18.67
2022-10-18T10:08:18.715Z,19.10
2022-10-18T10:10:25.577Z,18.60
2022-10-18T10:12:38.640Z,18.70
2022-10-18T10:16:58.539Z,17.48
2022-10-18T10:19:00.680Z,18.58
2022-10-18T10:21:05.942Z,20.25
2022-10-18T10:23:26.188Z,20.90
2022-10-18T10:25:40.976Z,20.70
2022-10-18T10:27:46.235Z,19.95
2022-10-18T10:29:48.253Z,22.02
2022-10-18T10:32:03.256Z,20.77
2022-10-18T10:34:15.138Z,20.83
2022-10-18T10:36:21.945Z,20.73
2022-10-18T10:38:29.040Z,19.10
2022-10-18T10:40:32.291Z,20.15
2022-10-18T10:42:38.017Z,19.00
2022-10-18T10:44:40.148Z,18.92
2022-10-18T10:46:42.251Z,17.88
2022-10-18T10:48:50.358Z,14.73
2022-10-18T10:51:09.836Z,15.57
2022-10-18T10:53:56.338Z,15.80
2022-10-18T10:55:58.476Z,15.02
2022-10-18T10:58:00.707Z,17.45
2022-10-18T11:00:02.964Z,16.17
2022-10-18T11:02:20.753Z,16.13
2022-10-18T11:04:30.251Z,16.92
2022-10-18T11:07:06.416Z,16.52
2022-10-18T11:09:42.241Z,17.90
2022-10-18T11:11:49.938Z,20.05
2022-10-18T11:14:25.320Z,18.83
2022-10-18T11:16:58.789Z,19.13
2022-10-18T11:19:01.464Z,19.45
2022-10-18T11:23:31.847Z,18.67
2022-10-18T11:26:18.393Z,18.00
2022-10-18T11:29:15.219Z,17.92
2022-10-18T11:31:58.413Z,18.02
2022-10-18T11:34:47.117Z,16.85
2022-10-18T11:37:30.114Z,16.05
2022-10-18T11:39:43.664Z,17.15
2022-10-18T11:41:58.613Z,16.45
2022-10-18T11:44:04.231Z,16.95
2022-10-18T11:46:41.449Z,16.30
2022-10-18T11:48:49.275Z,16.83
2022-10-18T11:51:34.271Z,16.10
2022-10-18T11:54:22.658Z,16.27
2022-10-18T11:58:59.385Z,16.95
2022-10-18T12:01:24.712Z,16.02
2022-10-18T12:03:51.286Z,14.32
2022-10-18T12:05:54.375Z,15.32
2022-10-18T12:08:29.496Z,15.40
2022-10-18T12:10:44.406Z,14.45
2022-10-18T12:13:02.126Z,15.32
2022-10-18T12:15:13.947Z,16.75
2022-10-18T12:17:50.088Z,15.27
2022-10-18T12:19:52.450Z,17.38
2022-10-18T12:22:10.811Z,18.17
2022-10-18T12:24:25.318Z,15.98
2022-10-18T12:26:28.409Z,15.40
2022-10-18T12:29:15.235Z,15.98
2022-10-18T12:31:36.983Z,16.75
2022-10-18T12:33:40.855Z,16.38
2022-10-18T12:35:59.282Z,15.65
2022-10-18T12:38:24.668Z,16.80
2022-10-18T12:40:39.067Z,15.75
2022-10-18T12:42:46.538Z,14.68
2022-10-18T12:44:48.801Z,15.60
2022-10-18T12:47:01.184Z,16.30
2022-10-18T12:49:04.868Z,14.13
2022-10-18T12:51:15.392Z,14.27
2022-10-18T12:53:20.374Z,12.63
2022-10-18T12:55:25.060Z,14.68
2022-10-18T12:57:27.199Z,14.23
2022-10-18T12:59:29.203Z,13.98
2022-10-18T13:01:51.370Z,15.15
2022-10-18T13:03:56.960Z,14.23
2022-10-18T13:06:04.163Z,14.80
2022-10-18T13:08:38.192Z,15.00
2022-10-18T13:10:40.944Z,15.65
2022-10-18T13:15:40.819Z,15.07
2022-10-18T13:18:04.867Z,13.63
2022-10-18T13:20:26.518Z,14.80
2022-10-18T13:22:54.813Z,14.48
2022-10-18T13:25:16.745Z,13.95
2022-10-18T13:27:45.130Z,10.15
2022-10-18T13:30:50.441Z,11.10
2022-10-18T13:33:27.883Z,8.00
2022-10-18T13:35:45.873Z,8.32
2022-10-18T13:37:59.758Z,8.90
2022-10-18T13:40:24.159Z,8.95
2022-10-18T13:42:32.017Z,7.82
2022-10-18T13:44:37.917Z,8.30
2022-10-18T13:46:39.972Z,8.63
2022-10-18T13:48:51.633Z,8.88
2022-10-18T13:50:53.791Z,9.93
2022-10-18T13:53:07.730Z,10.23
2022-10-18T13:55:33.608Z,8.00
2022-10-18T13:58:03.059Z,9.32
2022-10-18T14:00:58.224Z,9.93
2022-10-18T14:03:56.326Z,10.30
2022-10-18T14:06:06.144Z,12.85
2022-10-18T14:08:28.353Z,10.52
2022-10-18T14:11:05.420Z,9.38
2022-10-18T14:13:07.549Z,10.50
2022-10-18T14:15:30.192Z,10.25
2022-10-18T14:17:42.818Z,10.75
2022-10-18T14:20:01.668Z,10.23
2022-10-18T14:22:32.498Z,10.93
2022-10-18T14:24:34.806Z,11.10
2022-10-18T14:26:36.933Z,11.15
2022-10-18T14:28:58.426Z,11.95
2022-10-18T14:31:06.603Z,11.40
2022-10-18T14:33:33.598Z,11.43
2022-10-18T14:35:35.936Z,11.18
2022-10-18T14:37:38.023Z,11.75
2022-10-18T14:39:40.130Z,11.73
2022-10-18T14:41:55.810Z,10.98
2022-10-18T14:44:15.732Z,11.57
2022-10-18T14:46:28.970Z,11.70
2022-10-18T14:48:33.279Z,11.15
2022-10-18T14:50:35.422Z,12.75
2022-10-18T14:52:37.515Z,12.57
2022-10-18T14:54:39.615Z,11.85
2022-10-18T14:56:41.914Z,13.18
2022-10-18T14:58:44.011Z,13.25
2022-10-18T15:00:48.456Z,12.82
2022-10-18T15:02:50.954Z,12.20
2022-10-18T15:05:05.215Z,13.85
2022-10-18T15:07:08.045Z,12.98
2022-10-18T15:09:10.217Z,12.70
2022-10-18T15:11:14.487Z,13.73
2022-10-18T15:13:17.360Z,12.38
2022-10-18T15:17:32.443Z,14.18
2022-10-18T15:19:39.548Z,14.43
2022-10-18T15:24:26.662Z,15.35
2022-10-18T15:26:29.663Z,15.07
2022-10-18T15:28:50.257Z,15.13
2022-10-18T15:30:52.390Z,16.35
2022-10-18T15:33:02.073Z,14.95
2022-10-18T15:35:22.131Z,14.60
2022-10-18T15:37:38.493Z,15.10
2022-10-18T15:39:40.634Z,14.95
2022-10-18T15:41:58.594Z,15.43
2022-10-18T15:44:21.145Z,15.45
2022-10-18T15:46:32.533Z,15.90
2022-10-18T15:48:41.523Z,15.52
2022-10-18T15:50:49.761Z,15.57
2022-10-18T15:52:51.883Z,16.13
2022-10-18T15:54:54.026Z,16.17
2022-10-18T15:56:56.393Z,17.60
2022-10-18T15:59:00.882Z,16.90
2022-10-18T16:01:04.443Z,16.30
2022-10-18T16:03:09.331Z,17.27
2022-10-18T16:05:18.355Z,17.52
2022-10-18T16:07:20.485Z,18.45
2022-10-18T16:09:24.272Z,17.75
2022-10-18T16:11:26.506Z,28.50
2022-10-18T16:13:28.759Z,19.58
2022-10-18T16:15:30.839Z,19.52
2022-10-18T16:17:33.241Z,17.65
2022-10-18T16:19:35.545Z,16.73
2022-10-18T16:21:38.764Z,18.60
2022-10-18T16:23:59.703Z,17.88
2022-10-18T16:26:22.551Z,18.38
2022-10-18T16:28:45.141Z,18.98
2022-10-18T16:31:07.906Z,18.48
2022-10-18T16:33:30.993Z,18.27
2022-10-18T16:35:53.687Z,19.13
2022-10-18T16:38:34.156Z,19.80
2022-10-18T16:40:57.584Z,19.10
2022-10-18T16:43:20.042Z,18.17
2022-10-18T16:45:42.411Z,20.52
2022-10-18T16:48:05.475Z,18.73
2022-10-18T16:50:29.061Z,18.58
2022-10-18T16:52:53.205Z,18.63
2022-10-18T16:55:21.170Z,17.17
2022-10-18T16:57:43.851Z,21.00
2022-10-18T17:00:07.008Z,32.03
2022-10-18T17:02:29.472Z,28.75
2022-10-18T17:04:51.924Z,25.10
2022-10-18T17:07:23.552Z,19.40
2022-10-18T17:09:56.560Z,19.92
2022-10-18T17:12:18.965Z,19.63
2022-10-18T17:14:41.376Z,20.23
2022-10-18T17:17:03.749Z,20.23
2022-10-18T17:19:26.108Z,19.55
2022-10-18T17:21:56.841Z,19.23
2022-10-18T17:24:22.543Z,19.10
2022-10-18T17:26:44.958Z,19.60
2022-10-18T17:29:08.362Z,21.13
2022-10-18T17:31:31.138Z,18.88
2022-10-18T17:33:55.378Z,19.77
2022-10-18T17:36:17.874Z,20.52
2022-10-18T17:38:40.330Z,19.93
2022-10-18T17:41:11.973Z,19.83
2022-10-18T17:43:34.471Z,21.13
2022-10-18T17:45:57.115Z,19.63
2022-10-18T17:48:19.577Z,20.67
2022-10-18T17:50:42.118Z,19.85
2022-10-18T17:53:04.479Z,20.30
2022-10-18T17:55:27.623Z,20.03
2022-10-18T17:57:50.036Z,21.65
2022-10-18T18:00:13.083Z,19.23
2022-10-18T18:02:38.197Z,20.90
2022-10-18T18:05:02.525Z,20.02
2022-10-18T18:07:25.003Z,21.67
2022-10-18T18:09:45.677Z,21.20
2022-10-18T18:12:06.338Z,21.35
2022-10-18T18:14:28.716Z,19.40
2022-10-18T18:16:51.360Z,20.88
2022-10-18T18:19:14.187Z,20.70
2022-10-18T18:21:36.668Z,21.55
2022-10-18T18:23:59.100Z,20.63
2022-10-18T18:26:22.057Z,20.20
2022-10-18T18:28:44.652Z,20.50
2022-10-18T18:31:07.979Z,21.08
2022-10-18T18:35:57.222Z,19.52
2022-10-18T18:38:19.637Z,19.92
2022-10-18T18:40:42.034Z,20.00
2022-10-18T18:43:18.978Z,20.83
2022-10-18T18:45:52.070Z,20.05
2022-10-18T18:48:18.971Z,19.48
2022-10-18T18:50:50.088Z,20.88
2022-10-18T18:53:12.436Z,18.70
2022-10-18T18:55:39.742Z,16.47
2022-10-18T18:58:02.086Z,18.80
2022-10-18T19:00:24.778Z,17.40
2022-10-18T19:02:47.150Z,17.40
2022-10-18T19:05:09.743Z,18.67
2022-10-18T19:07:32.516Z,20.67
2022-10-18T19:09:55.138Z,16.48
2022-10-18T19:12:20.520Z,15.80
2022-10-18T19:14:43.894Z,16.75
2022-10-18T19:17:07.950Z,17.48
2022-10-18T19:19:30.923Z,15.98
2022-10-18T19:22:00.630Z,16.02
2022-10-18T19:24:24.328Z,16.67
2022-10-18T19:26:58.399Z,16.15
2022-10-18T19:29:25.521Z,16.30
2022-10-18T19:31:48.153Z,15.50
2022-10-18T19:34:12.381Z,15.27
2022-10-18T19:36:35.108Z,15.35
2022-10-18T19:38:57.937Z,15.93
2022-10-18T19:41:20.400Z,14.90
2022-10-18T19:43:42.836Z,14.23
2022-10-18T19:46:05.541Z,14.27
2022-10-18T19:48:27.924Z,13.18
2022-10-18T19:50:50.883Z,13.17
2022-10-18T19:53:13.242Z,12.18
2022-10-18T19:55:35.652Z,11.43
2022-10-18T19:57:57.987Z,11.30
2022-10-18T20:00:20.479Z,10.97
2022-10-18T20:02:42.854Z,10.80
2022-10-18T20:05:05.792Z,10.93
2022-10-18T20:07:28.199Z,10.90
2022-10-18T20:09:50.684Z,10.50
2022-10-18T20:12:13.054Z,10.80
2022-10-18T20:14:35.442Z,10.60
2022-10-18T20:16:57.895Z,11.00
2022-10-18T20:19:20.236Z,11.93
2022-10-18T20:21:42.643Z,11.57
2022-10-18T20:24:05.710Z,12.73
2022-10-18T20:28:58.533Z,10.45
2022-10-18T20:31:21.105Z,10.88
2022-10-18T20:33:43.890Z,10.83
2022-10-18T20:36:11.692Z,10.02
2022-10-18T20:38:35.921Z,10.05
2022-10-18T20:41:18.279Z,9.35
2022-10-18T20:43:40.782Z,8.85
2022-10-18T20:46:03.513Z,9.88
2022-10-18T20:48:26.939Z,8.60
2022-10-18T20:50:49.402Z,8.75
2022-10-18T20:53:11.735Z,8.60
2022-10-18T20:55:34.127Z,8.00
2022-10-18T20:57:56.499Z,7.10
2022-10-18T21:00:19.007Z,8.37
2022-10-18T21:02:41.403Z,7.10
2022-10-18T21:05:04.550Z,7.40
2022-10-18T21:07:26.854Z,7.32
2022-10-18T21:09:49.370Z,6.87
2022-10-18T21:14:39.142Z,7.35
2022-10-18T21:17:01.552Z,7.88
2022-10-18T21:19:26.075Z,8.50
2022-10-18T21:21:51.023Z,10.02
2022-10-18T21:24:13.993Z,10.35
2022-10-18T21:26:36.517Z,10.23
2022-10-18T21:28:59.445Z,10.48
2022-10-18T21:31:24.054Z,10.70
2022-10-18T21:33:46.681Z,11.15
2022-10-18T21:36:09.352Z,10.77
2022-10-18T21:38:31.787Z,10.48
2022-10-18T21:40:54.304Z,10.03
2022-10-18T21:43:16.818Z,9.60
2022-10-18T21:45:39.164Z,9.90
2022-10-18T21:48:02.832Z,9.73
2022-10-18T21:50:25.349Z,10.68
2022-10-18T21:52:48.514Z,10.00
2022-10-18T21:55:10.974Z,9.48
2022-10-18T22:00:02.112Z,8.77
2022-10-18T22:02:24.504Z,8.02
2022-10-18T22:04:47.174Z,8.07
2022-10-18T22:07:09.576Z,8.68
2022-10-18T22:09:32.332Z,7.97
2022-10-18T22:11:54.807Z,8.13
2022-10-18T22:14:17.214Z,8.63
2022-10-18T22:16:39.567Z,7.83
2022-10-18T22:19:02.791Z,8.57
2022-10-18T22:21:25.250Z,7.30
2022-10-18T22:23:50.287Z,7.23
2022-10-18T22:26:21.974Z,7.93
2022-10-18T22:28:44.785Z,7.68
2022-10-18T22:31:13.763Z,7.90
2022-10-18T22:38:21.838Z,7.65
2022-10-18T22:40:44.574Z,6.57
2022-10-18T22:43:06.902Z,6.95
2022-10-18T22:45:29.253Z,7.03
2022-10-18T22:47:51.623Z,6.73
2022-10-18T22:50:14.250Z,6.83
2022-10-18T22:52:36.753Z,6.50
2022-10-18T22:54:59.302Z,6.15
2022-10-18T22:57:21.830Z,7.10
2022-10-18T22:59:44.267Z,6.80
2022-10-18T23:02:06.827Z,6.90
2022-10-18T23:04:29.481Z,8.07
2022-10-18T23:06:51.854Z,6.47
2022-10-18T23:09:14.325Z,7.78
2022-10-18T23:11:36.966Z,8.60
2022-10-18T23:13:59.438Z,7.50
2022-10-18T23:16:22.014Z,7.37
2022-10-18T23:18:44.464Z,6.95
2022-10-18T23:21:09.619Z,7.67
2022-10-18T23:23:35.474Z,7.88
2022-10-18T23:25:57.878Z,7.25
2022-10-18T23:28:20.297Z,7.77
2022-10-18T23:30:42.967Z,7.22
2022-10-18T23:33:05.325Z,7.20
2022-10-18T23:35:28.898Z,7.20
2022-10-18T23:37:52.035Z,6.57
2022-10-18T23:40:14.531Z,7.10
2022-10-18T23:42:37.064Z,6.90
2022-10-18T23:44:59.486Z,6.53
2022-10-18T23:47:21.910Z,6.83
2022-10-18T23:49:44.390Z,8.00
2022-10-18T23:52:07.382Z,7.60
2022-10-18T23:54:29.798Z,5.90
2022-10-18T23:56:52.196Z,6.27
2022-10-18T23:59:14.632Z,5.67
